Time;durP1;ratioP1;P1;durP2;ratioP2;P2;SDS_P1;SDS_P2;PMS_P1;PMS_P2;Temp;Humidity;BMP_temperature;BMP_pressure;BME280_temperature;BME280_humidity;BME280_pressure;Samples;Min_cycle;Max_cycle;Signal;HPM_P1;HPM_P2
2022/12/10 00:00:53;;;;;;;9.75;6.63;;;0.20;99.90;;;;;;5003520;28;20121;-71
2022/12/10 00:03:18;;;;;;;18.63;8.77;;;0.20;99.90;;;;;;5009802;28;20529;-71
2022/12/10 00:05:44;;;;;;;19.40;8.02;;;0.20;99.90;;;;;;5004381;28;20053;-72
2022/12/10 00:08:09;;;;;;;13.50;6.50;;;0.20;99.90;;;;;;5009861;28;20042;-72
2022/12/10 00:10:39;;;;;;;14.50;6.93;;;0.20;99.90;;;;;;5008951;28;20483;-72
2022/12/10 00:13:05;;;;;;;18.38;6.97;;;0.20;99.90;;;;;;5009471;28;20089;-72
2022/12/10 00:15:33;;;;;;;15.95;6.82;;;0.20;99.90;;;;;;5024778;28;20738;-72
2022/12/10 00:17:59;;;;;;;13.43;6.60;;;0.20;99.90;;;;;;5012295;28;20037;-72
2022/12/10 00:20:24;;;;;;;11.07;7.57;;;0.30;99.90;;;;;;4994710;28;20046;-72
2022/12/10 00:22:50;;;;;;;18.92;8.18;;;0.30;99.90;;;;;;5007863;28;20088;-72
2022/12/10 00:25:16;;;;;;;16.30;7.55;;;0.30;99.90;;;;;;5018230;28;20475;-72
2022/12/10 00:27:42;;;;;;;13.43;5.28;;;0.40;99.90;;;;;;5009292;28;20551;-72
2022/12/10 00:30:08;;;;;;;17.45;7.45;;;0.40;99.90;;;;;;5020575;28;20645;-72
2022/12/10 00:32:33;;;;;;;15.05;7.78;;;0.40;99.90;;;;;;5009029;28;20038;-72
2022/12/10 00:34:59;;;;;;;18.63;8.10;;;0.50;99.90;;;;;;5019105;28;20037;-72
2022/12/10 00:37:24;;;;;;;14.35;8.15;;;0.40;99.90;;;;;;5021539;28;20065;-72
2022/12/10 00:39:50;;;;;;;21.88;7.53;;;0.50;99.90;;;;;;5011807;28;20492;-72
2022/12/10 00:42:15;;;;;;;16.95;7.20;;;0.50;99.90;;;;;;5008854;28;20046;-72
2022/12/10 00:44:41;;;;;;;22.00;8.05;;;0.50;99.90;;;;;;5015174;28;20133;-72
2022/12/10 00:47:07;;;;;;;13.95;6.13;;;0.50;99.90;;;;;;5009575;28;20055;-72
2022/12/10 00:49:32;;;;;;;20.42;8.50;;;0.40;99.90;;;;;;5008932;28;20042;-72
2022/12/10 00:51:58;;;;;;;15.25;7.25;;;0.40;99.90;;;;;;5008101;28;20499;-72
2022/12/10 00:54:23;;;;;;;16.50;8.02;;;0.40;99.90;;;;;;5009060;28;20647;-72
2022/12/10 00:56:49;;;;;;;18.52;8.10;;;0.40;99.90;;;;;;5008429;28;20695;-72
2022/12/10 00:59:14;;;;;;;23.05;7.78;;;0.30;99.90;;;;;;5009190;28;20130;-72
2022/12/10 01:01:42;;;;;;;16.35;7.70;;;0.30;99.90;;;;;;5022258;28;20038;-72
2022/12/10 01:04:16;;;;;;;12.05;6.43;;;0.40;99.90;;;;;;4999887;28;20057;-72
2022/12/10 01:06:46;;;;;;;19.67;7.47;;;0.40;99.90;;;;;;5007690;28;20061;-72
2022/12/10 01:09:15;;;;;;;12.82;6.40;;;0.40;99.90;;;;;;5043670;28;20076;-72
2022/12/10 01:11:43;;;;;;;19.70;8.38;;;0.40;99.90;;;;;;5028080;28;20038;-72
2022/12/10 01:14:11;;;;;;;19.13;7.20;;;0.40;99.90;;;;;;5009835;28;20112;-72
2022/12/10 01:16:37;;;;;;;19.13;8.55;;;0.40;99.90;;;;;;5008423;28;20061;-72
2022/12/10 01:19:03;;;;;;;19.33;8.82;;;0.30;99.90;;;;;;5019575;28;20046;-72
2022/12/10 01:21:29;;;;;;;18.48;7.28;;;0.40;99.90;;;;;;5007035;28;20065;-72
2022/12/10 01:23:56;;;;;;;12.98;6.07;;;0.30;99.90;;;;;;5013876;28;20403;-72
2022/12/10 01:26:24;;;;;;;18.70;9.35;;;0.30;99.90;;;;;;5026966;28;20125;-72
2022/12/10 01:28:51;;;;;;;24.77;8.35;;;0.30;99.90;;;;;;5028326;28;20567;-72
2022/12/10 01:31:19;;;;;;;17.05;7.55;;;0.30;99.90;;;;;;5023467;28;20053;-72
2022/12/10 01:33:45;;;;;;;15.93;8.05;;;0.30;99.90;;;;;;5009634;28;20389;-72
2022/12/10 01:36:17;;;;;;;20.10;7.53;;;0.30;99.90;;;;;;5007302;28;20409;-72
2022/12/10 01:38:42;;;;;;;11.63;8.18;;;0.20;99.90;;;;;;5007266;28;20810;-72
2022/12/10 01:41:15;;;;;;;21.38;9.82;;;0.20;99.90;;;;;;5008958;28;20042;-72
2022/12/10 01:44:09;;;;;;;19.67;8.15;;;0.20;99.90;;;;;;5020789;28;20476;-72
2022/12/10 01:46:55;;;;;;;16.58;8.48;;;0.20;99.90;;;;;;4997943;28;20036;-72
2022/12/10 01:49:33;;;;;;;14.48;6.75;;;0.20;99.90;;;;;;5021090;28;20052;-72
2022/12/10 01:51:59;;;;;;;15.45;7.30;;;0.20;99.90;;;;;;5018961;28;20034;-72
2022/12/10 01:54:33;;;;;;;22.55;8.82;;;0.20;99.90;;;;;;5005345;28;20407;-72
2022/12/10 01:57:06;;;;;;;16.58;7.78;;;0.10;99.90;;;;;;5027269;28;20618;-72
2022/12/10 01:59:32;;;;;;;13.82;8.40;;;0.10;99.90;;;;;;4995288;28;20038;-72
2022/12/10 02:02:22;;;;;;;21.55;9.13;;;0.10;99.90;;;;;;5010738;28;20037;-72
2022/12/10 02:05:01;;;;;;;8.63;4.82;;;0.10;99.90;;;;;;5008770;28;20038;-72
2022/12/10 02:07:41;;;;;;;27.17;10.65;;;0.10;99.90;;;;;;5021326;28;20480;-72
2022/12/10 02:10:33;;;;;;;16.92;8.98;;;0.10;99.90;;;;;;5015848;28;20041;-72
2022/12/10 02:13:13;;;;;;;19.08;8.85;;;0.10;99.90;;;;;;5017970;28;20069;-72
2022/12/10 02:15:50;;;;;;;24.65;7.30;;;0.00;99.90;;;;;;5011961;28;20117;-72
2022/12/10 02:18:44;;;;;;;20.02;9.00;;;0.10;99.90;;;;;;5010929;28;20038;-72
2022/12/10 02:21:17;;;;;;;12.63;6.47;;;0.10;99.90;;;;;;5017199;28;20140;-72
2022/12/10 02:23:51;;;;;;;12.63;7.25;;;0.10;99.90;;;;;;5020360;28;20030;-72
2022/12/10 02:26:24;;;;;;;21.45;8.98;;;0.00;99.90;;;;;;5011245;28;20030;-72
2022/12/10 02:28:49;;;;;;;25.38;10.10;;;0.00;99.90;;;;;;5028028;28;20564;-72
2022/12/10 02:31:20;;;;;;;24.63;9.90;;;0.00;99.90;;;;;;5014265;28;20076;-72
2022/12/10 02:33:51;;;;;;;22.75;8.57;;;0.00;99.90;;;;;;5026856;28;20042;-72
2022/12/10 02:36:18;;;;;;;20.52;9.90;;;0.00;99.90;;;;;;5009956;28;20052;-72
2022/12/10 02:38:45;;;;;;;15.43;8.65;;;0.00;99.90;;;;;;5010855;28;20041;-72
2022/12/10 02:41:22;;;;;;;19.60;8.45;;;0.00;99.90;;;;;;5010822;28;20042;-72
2022/12/10 02:43:52;;;;;;;19.27;8.80;;;0.00;99.90;;;;;;5013452;28;20092;-72
2022/12/10 02:46:19;;;;;;;17.85;9.88;;;0.00;99.90;;;;;;5010686;28;20049;-72
2022/12/10 02:48:46;;;;;;;26.58;10.02;;;0.00;99.90;;;;;;4999450;28;20044;-72
2022/12/10 02:51:12;;;;;;;17.98;8.80;;;0.00;99.90;;;;;;5009386;28;20069;-72
2022/12/10 02:53:44;;;;;;;17.42;8.65;;;0.00;99.90;;;;;;4995556;28;20475;-72
2022/12/10 02:56:24;;;;;;;22.85;10.43;;;0.00;99.90;;;;;;5020299;28;20042;-72
2022/12/10 02:58:55;;;;;;;17.45;9.90;;;0.00;99.90;;;;;;5024039;28;20290;-72
2022/12/10 03:01:32;;;;;;;25.73;11.48;;;0.00;99.90;;;;;;5024209;28;20037;-72
2022/12/10 03:04:10;;;;;;;15.63;8.57;;;0.00;99.90;;;;;;4994127;28;20503;-72
2022/12/10 03:06:51;;;;;;;18.67;8.82;;;0.00;99.90;;;;;;5008764;28;20041;-72
2022/12/10 03:09:29;;;;;;;16.52;8.68;;;0.00;99.90;;;;;;5010726;28;20129;-72
2022/12/10 03:12:32;;;;;;;24.60;9.82;;;0.00;99.90;;;;;;5011086;28;20121;-72
2022/12/10 03:15:00;;;;;;;20.70;9.30;;;0.00;99.90;;;;;;4993279;28;20058;-72
2022/12/10 03:17:28;;;;;;;21.00;9.43;;;0.00;99.90;;;;;;5010436;28;20547;-72
2022/12/10 03:19:57;;;;;;;19.20;10.60;;;-0.10;99.90;;;;;;4993149;28;20034;-72
2022/12/10 03:22:23;;;;;;;24.92;7.57;;;-0.10;99.90;;;;;;4995652;28;20064;-72
2022/12/10 03:24:50;;;;;;;22.77;7.65;;;-0.10;99.90;;;;;;5025738;28;20038;-72
2022/12/10 03:27:17;;;;;;;18.67;11.13;;;-0.10;99.90;;;;;;5010230;28;20522;-72
2022/12/10 03:29:51;;;;;;;19.55;8.00;;;-0.20;99.90;;;;;;5004987;28;20041;-72
2022/12/10 03:32:20;;;;;;;24.23;9.00;;;-0.20;99.90;;;;;;5014113;28;20048;-72
2022/12/10 03:34:47;;;;;;;20.98;9.23;;;-0.10;99.90;;;;;;5016867;28;20038;-72
2022/12/10 03:37:14;;;;;;;17.38;8.43;;;-0.20;99.90;;;;;;5007675;28;20037;-72
2022/12/10 03:39:41;;;;;;;14.05;7.05;;;-0.20;99.90;;;;;;5029843;28;20042;-72
2022/12/10 03:42:07;;;;;;;20.92;8.45;;;-0.20;99.90;;;;;;5030132;28;20148;-72
2022/12/10 03:44:35;;;;;;;27.70;10.98;;;-0.20;99.90;;;;;;5010503;28;20124;-72
2022/12/10 03:47:02;;;;;;;16.05;6.88;;;-0.20;99.90;;;;;;5012730;28;20052;-72
2022/12/10 03:49:28;;;;;;;23.67;10.05;;;-0.20;99.90;;;;;;5009941;28;20523;-72
2022/12/10 03:51:54;;;;;;;18.48;8.05;;;-0.30;99.90;;;;;;5022366;28;20042;-72
2022/12/10 03:54:20;;;;;;;12.68;6.55;;;-0.20;99.90;;;;;;5021188;28;20049;-72
2022/12/10 03:56:45;;;;;;;19.55;10.15;;;-0.20;99.90;;;;;;5015326;28;20033;-72
2022/12/10 03:59:11;;;;;;;23.40;12.20;;;-0.20;99.90;;;;;;5020763;28;20152;-72
2022/12/10 04:01:37;;;;;;;18.63;8.52;;;-0.20;99.90;;;;;;5013751;28;20514;-72
2022/12/10 04:04:04;;;;;;;16.40;7.72;;;-0.20;99.90;;;;;;5021973;28;20392;-72
2022/12/10 04:06:29;;;;;;;19.10;9.80;;;-0.20;99.90;;;;;;5014802;28;20567;-72
2022/12/10 04:08:55;;;;;;;17.73;8.88;;;-0.20;99.90;;;;;;4993389;28;20040;-72
2022/12/10 04:11:21;;;;;;;24.88;9.52;;;-0.20;99.90;;;;;;5013441;28;20057;-72
2022/12/10 04:16:33;;;;;;;17.75;8.00;;;-0.20;99.90;;;;;;5009215;28;20053;-72
2022/12/10 04:19:11;;;;;;;14.70;8.80;;;-0.20;99.90;;;;;;4993561;28;20442;-72
2022/12/10 04:27:18;;;;;;;25.13;8.40;;;-0.30;99.90;;;;;;5009405;28;20037;-72
2022/12/10 04:29:44;;;;;;;20.15;9.90;;;-0.30;99.90;;;;;;5015486;28;20056;-72
2022/12/10 04:32:10;;;;;;;17.58;8.35;;;-0.30;99.90;;;;;;5028723;28;20041;-72
2022/12/10 04:34:36;;;;;;;20.92;9.82;;;-0.30;99.90;;;;;;5010297;28;20116;-72
2022/12/10 04:37:03;;;;;;;17.42;8.95;;;-0.30;99.90;;;;;;5008522;28;20108;-72
2022/12/10 04:39:28;;;;;;;19.67;7.32;;;-0.30;99.90;;;;;;5028594;28;20442;-72
2022/12/10 04:41:54;;;;;;;21.50;9.93;;;-0.30;99.90;;;;;;5012217;28;20034;-72
2022/12/10 04:44:20;;;;;;;27.15;10.07;;;-0.30;99.90;;;;;;5024231;28;20072;-72
2022/12/10 04:46:46;;;;;;;16.65;8.75;;;-0.30;99.90;;;;;;5008635;28;20034;-72
2022/12/10 04:49:12;;;;;;;12.70;7.25;;;-0.30;99.90;;;;;;5008965;28;20092;-72
2022/12/10 04:51:39;;;;;;;14.35;7.25;;;-0.30;99.90;;;;;;5014665;28;20125;-72
2022/12/10 04:54:05;;;;;;;18.70;9.65;;;-0.30;99.90;;;;;;5020728;28;20077;-72
2022/12/10 04:56:31;;;;;;;23.02;8.55;;;-0.30;99.90;;;;;;5008512;28;20046;-72
2022/12/10 04:58:58;;;;;;;17.40;8.07;;;-0.30;99.90;;;;;;5014773;28;20074;-73
2022/12/10 05:01:24;;;;;;;17.65;10.00;;;-0.30;99.90;;;;;;5010597;28;20125;-73
2022/12/10 05:03:50;;;;;;;26.92;9.68;;;-0.30;99.90;;;;;;5015609;28;20037;-73
2022/12/10 05:06:18;;;;;;;19.20;7.45;;;-0.30;99.90;;;;;;4997985;28;20044;-73
2022/12/10 05:08:44;;;;;;;17.85;10.20;;;-0.40;99.90;;;;;;5008816;28;20120;-73
2022/12/10 05:11:16;;;;;;;24.88;9.52;;;-0.40;99.90;;;;;;5015195;28;20040;-73
2022/12/10 05:13:42;;;;;;;15.02;7.97;;;-0.40;99.90;;;;;;5008020;28;20462;-73
2022/12/10 05:16:10;;;;;;;18.40;8.85;;;-0.40;99.90;;;;;;5008013;28;20095;-73
2022/12/10 05:18:36;;;;;;;21.90;9.00;;;-0.40;99.90;;;;;;5008682;28;20120;-73
2022/12/10 05:21:05;;;;;;;22.30;8.63;;;-0.50;99.90;;;;;;5013461;28;20033;-73
2022/12/10 05:23:31;;;;;;;24.25;8.52;;;-0.40;99.90;;;;;;5000191;28;20061;-73
2022/12/10 05:26:08;;;;;;;25.90;9.48;;;-0.50;99.90;;;;;;4991473;28;20092;-73
2022/12/10 05:28:39;;;;;;;20.80;9.23;;;-0.50;99.90;;;;;;4992789;28;20496;-73
2022/12/10 05:31:14;;;;;;;22.15;9.25;;;-0.50;99.90;;;;;;5009719;28;20049;-73
2022/12/10 05:33:40;;;;;;;18.25;9.15;;;-0.60;99.90;;;;;;5022358;28;20044;-73
2022/12/10 05:36:07;;;;;;;16.92;9.25;;;-0.60;99.90;;;;;;5007082;28;20029;-73
2022/12/10 05:38:34;;;;;;;21.08;8.73;;;-0.60;99.90;;;;;;5007997;28;20073;-73
2022/12/10 05:41:04;;;;;;;25.15;10.88;;;-0.60;99.90;;;;;;5008196;28;20900;-73
2022/12/10 05:43:31;;;;;;;10.85;7.25;;;-0.60;99.90;;;;;;4991579;28;20571;-73
2022/12/10 05:46:06;;;;;;;16.83;8.90;;;-0.60;99.90;;;;;;5020768;28;20064;-73
2022/12/10 05:48:33;;;;;;;22.70;8.75;;;-0.60;99.90;;;;;;5023258;28;20091;-73
2022/12/10 05:51:02;;;;;;;18.33;6.88;;;-0.60;99.90;;;;;;4996152;28;20048;-73
2022/12/10 05:53:28;;;;;;;23.88;8.95;;;-0.60;99.90;;;;;;5018074;28;20049;-73
2022/12/10 05:56:00;;;;;;;18.20;7.47;;;-0.60;99.90;;;;;;5008148;28;20424;-73
2022/12/10 05:58:28;;;;;;;16.02;9.20;;;-0.60;99.90;;;;;;5013280;28;20045;-73
2022/12/10 06:00:54;;;;;;;23.15;10.18;;;-0.60;99.90;;;;;;5025309;28;20076;-73
2022/12/10 06:03:19;;;;;;;19.05;9.90;;;-0.70;99.90;;;;;;5024295;28;20064;-73
2022/12/10 06:05:45;;;;;;;19.40;9.57;;;-0.60;99.90;;;;;;5018670;28;20077;-73
2022/12/10 06:08:10;;;;;;;23.15;8.95;;;-0.70;99.90;;;;;;5016323;28;20042;-73
2022/12/10 06:10:36;;;;;;;13.15;6.90;;;-0.70;99.90;;;;;;5020855;28;20045;-73
2022/12/10 06:13:04;;;;;;;15.82;7.90;;;-0.70;99.90;;;;;;5007129;28;20058;-73
2022/12/10 06:15:30;;;;;;;30.75;9.00;;;-0.70;99.90;;;;;;5024146;28;20045;-73
2022/12/10 06:17:56;;;;;;;23.25;6.55;;;-0.70;99.90;;;;;;5024074;28;20491;-73
2022/12/10 06:20:23;;;;;;;20.05;7.57;;;-0.70;99.90;;;;;;5007454;28;20038;-73
2022/12/10 06:22:48;;;;;;;21.75;10.20;;;-0.70;99.90;;;;;;5020553;28;20045;-73
2022/12/10 06:25:14;;;;;;;27.08;10.68;;;-0.70;99.90;;;;;;5008121;28;20034;-73
2022/12/10 06:27:40;;;;;;;25.58;7.97;;;-0.70;99.90;;;;;;5007685;28;20399;-73
2022/12/10 06:30:06;;;;;;;20.25;11.15;;;-0.70;99.90;;;;;;5010988;28;20042;-73
2022/12/10 06:32:32;;;;;;;15.63;9.02;;;-0.60;99.90;;;;;;5015876;28;20037;-73
2022/12/10 06:34:57;;;;;;;16.80;8.68;;;-0.60;99.90;;;;;;5010487;28;20499;-73
2022/12/10 06:37:23;;;;;;;19.10;11.02;;;-0.60;99.90;;;;;;5010185;28;20037;-73
2022/12/10 06:39:52;;;;;;;21.70;9.50;;;-0.60;99.90;;;;;;5011154;28;20503;-73
2022/12/10 06:42:18;;;;;;;22.38;9.63;;;-0.60;99.90;;;;;;5024601;28;20038;-73
2022/12/10 06:44:43;;;;;;;15.85;8.45;;;-0.60;99.90;;;;;;5026566;28;20125;-73
2022/12/10 06:47:09;;;;;;;24.80;12.77;;;-0.60;99.90;;;;;;5010132;28;20121;-73
2022/12/10 06:49:34;;;;;;;22.20;9.25;;;-0.60;99.90;;;;;;5011089;28;20100;-73
2022/12/10 06:52:00;;;;;;;20.80;9.25;;;-0.60;99.90;;;;;;5010287;28;20100;-73
2022/12/10 06:54:25;;;;;;;19.60;9.07;;;-0.60;99.90;;;;;;5009921;28;20510;-73
2022/12/10 06:56:51;;;;;;;16.33;7.75;;;-0.60;99.90;;;;;;5023945;28;20049;-73
2022/12/10 06:59:16;;;;;;;19.58;9.98;;;-0.60;99.90;;;;;;5022666;28;20053;-73
2022/12/10 07:01:42;;;;;;;22.30;9.15;;;-0.60;99.90;;;;;;5024244;28;20030;-73
2022/12/10 07:04:08;;;;;;;15.02;8.30;;;-0.60;99.90;;;;;;5020986;28;20462;-73
2022/12/10 07:06:34;;;;;;;22.30;9.77;;;-0.60;99.90;;;;;;5009218;28;20045;-73
2022/12/10 07:08:59;;;;;;;19.60;8.98;;;-0.70;99.90;;;;;;5014497;28;20417;-73
2022/12/10 07:11:25;;;;;;;15.95;9.02;;;-0.70;99.90;;;;;;5016801;28;20076;-73
2022/12/10 07:13:51;;;;;;;15.23;7.55;;;-0.70;99.90;;;;;;5020627;28;20053;-73
2022/12/10 07:16:20;;;;;;;16.83;10.10;;;-0.70;99.90;;;;;;5022749;28;20049;-73
2022/12/10 07:18:46;;;;;;;20.27;10.77;;;-0.70;99.90;;;;;;5008229;28;20538;-73
2022/12/10 07:21:18;;;;;;;15.68;7.63;;;-0.60;99.90;;;;;;5008769;28;20057;-73
2022/12/10 07:23:44;;;;;;;22.88;8.85;;;-0.60;99.90;;;;;;5016689;28;20103;-73
2022/12/10 07:26:10;;;;;;;23.70;10.23;;;-0.60;99.90;;;;;;4993636;28;20038;-73
2022/12/10 07:28:36;;;;;;;17.38;9.27;;;-0.60;99.90;;;;;;4994085;28;20435;-73
2022/12/10 07:31:07;;;;;;;21.10;7.38;;;-0.50;99.90;;;;;;5011843;28;20037;-73
2022/12/10 07:33:33;;;;;;;15.52;7.57;;;-0.50;99.90;;;;;;5020848;28;20411;-73
2022/12/10 07:35:59;;;;;;;24.17;10.45;;;-0.50;99.90;;;;;;5041726;28;20099;-73
2022/12/10 07:38:25;;;;;;;25.65;10.65;;;-0.50;99.90;;;;;;5019856;28;20407;-73
2022/12/10 07:40:51;;;;;;;18.15;9.15;;;-0.50;99.90;;;;;;5029510;28;20511;-73
2022/12/10 07:43:17;;;;;;;20.92;8.82;;;-0.50;99.90;;;;;;5025706;28;20034;-73
2022/12/10 07:45:43;;;;;;;16.90;9.40;;;-0.40;99.90;;;;;;5011910;28;20034;-73
2022/12/10 07:48:09;;;;;;;17.95;9.00;;;-0.40;99.90;;;;;;5006453;28;20091;-73
2022/12/10 07:50:34;;;;;;;22.92;10.43;;;-0.40;99.90;;;;;;5009422;28;20037;-73
2022/12/10 07:53:00;;;;;;;24.75;9.30;;;-0.40;99.90;;;;;;5020523;28;20503;-73
2022/12/10 07:55:26;;;;;;;29.75;12.80;;;-0.40;99.90;;;;;;5020547;28;20072;-73
2022/12/10 07:57:51;;;;;;;17.42;7.78;;;-0.40;99.90;;;;;;5015406;28;20762;-73
2022/12/10 08:00:17;;;;;;;29.25;9.00;;;-0.30;99.90;;;;;;5016809;28;20180;-73
2022/12/10 08:02:43;;;;;;;19.90;9.35;;;-0.30;99.90;;;;;;4992781;28;20068;-73
2022/12/10 08:05:09;;;;;;;17.13;8.57;;;-0.30;99.90;;;;;;5019024;28;20054;-73
2022/12/10 08:07:34;;;;;;;20.45;9.80;;;-0.30;99.90;;;;;;5010726;28;20041;-73
2022/12/10 08:10:00;;;;;;;17.17;10.25;;;-0.30;99.90;;;;;;5016033;28;20523;-73
2022/12/10 08:12:26;;;;;;;20.80;10.23;;;-0.30;99.90;;;;;;5007726;28;20065;-73
2022/12/10 08:14:51;;;;;;;21.20;12.35;;;-0.30;99.90;;;;;;5013618;28;20046;-73
2022/12/10 08:17:17;;;;;;;15.85;7.47;;;-0.30;99.90;;;;;;5008913;28;20160;-73
2022/12/10 08:19:42;;;;;;;17.77;8.55;;;-0.30;99.90;;;;;;5005414;28;20487;-73
2022/12/10 08:22:08;;;;;;;22.27;9.70;;;-0.40;99.90;;;;;;5008290;28;20037;-73
2022/12/10 08:24:34;;;;;;;20.63;8.25;;;-0.40;99.90;;;;;;5013953;28;20038;-73
2022/12/10 08:27:00;;;;;;;20.92;9.05;;;-0.40;99.90;;;;;;5008286;28;20049;-73
2022/12/10 08:29:25;;;;;;;21.35;9.27;;;-0.40;99.90;;;;;;5004250;28;20037;-73
2022/12/10 08:31:51;;;;;;;23.02;8.00;;;-0.30;99.90;;;;;;5007330;28;20492;-73
2022/12/10 08:34:18;;;;;;;24.15;10.20;;;-0.40;99.90;;;;;;4990882;28;20456;-73
2022/12/10 08:36:44;;;;;;;16.77;7.57;;;-0.40;99.90;;;;;;5009547;28;20124;-73
2022/12/10 08:39:14;;;;;;;25.67;11.65;;;-0.40;99.90;;;;;;5002641;28;20547;-73
2022/12/10 08:41:40;;;;;;;24.95;10.15;;;-0.40;99.90;;;;;;4991050;28;20030;-73
2022/12/10 08:44:06;;;;;;;16.02;9.60;;;-0.40;99.90;;;;;;5007406;28;20037;-73
2022/12/10 08:46:32;;;;;;;21.70;10.60;;;-0.40;99.90;;;;;;4994515;28;20092;-73
2022/12/10 08:48:58;;;;;;;21.35;8.85;;;-0.40;99.90;;;;;;5006785;28;20037;-73
2022/12/10 08:51:25;;;;;;;24.38;9.10;;;-0.40;99.90;;;;;;5002219;28;20038;-74
2022/12/10 08:53:50;;;;;;;21.58;9.30;;;-0.40;99.90;;;;;;4986513;28;20415;-73
2022/12/10 08:56:16;;;;;;;20.27;8.60;;;-0.40;99.90;;;;;;5012166;28;20042;-73
2022/12/10 08:58:42;;;;;;;21.45;9.15;;;-0.40;99.90;;;;;;5012400;28;20038;-74
2022/12/10 09:01:13;;;;;;;21.15;9.23;;;-0.40;99.90;;;;;;4987420;28;20041;-73
2022/12/10 09:03:38;;;;;;;30.23;10.15;;;-0.30;99.90;;;;;;5017348;28;20038;-73
2022/12/10 09:06:06;;;;;;;19.75;7.97;;;-0.30;99.90;;;;;;5015318;28;20501;-73
2022/12/10 09:08:32;;;;;;;15.10;8.50;;;-0.30;99.90;;;;;;5028303;28;20041;-73
2022/12/10 09:11:03;;;;;;;26.67;11.93;;;-0.30;99.90;;;;;;5028285;28;20041;-73
2022/12/10 09:13:29;;;;;;;20.58;9.85;;;-0.30;99.90;;;;;;5027939;28;20061;-73
2022/12/10 09:15:54;;;;;;;18.38;10.57;;;-0.30;99.90;;;;;;5001143;28;20054;-74
2022/12/10 09:18:20;;;;;;;19.75;9.60;;;-0.20;99.90;;;;;;5008341;28;20077;-73
2022/12/10 09:20:45;;;;;;;24.60;8.88;;;-0.20;99.90;;;;;;4990857;28;20038;-73
2022/12/10 09:23:11;;;;;;;20.17;11.13;;;-0.20;99.90;;;;;;4992248;28;20049;-73
2022/12/10 09:25:37;;;;;;;28.77;10.10;;;-0.20;99.90;;;;;;5008358;28;20153;-73
2022/12/10 09:28:02;;;;;;;25.77;10.30;;;-0.10;99.90;;;;;;4992102;28;20072;-73
2022/12/10 09:30:28;;;;;;;23.50;11.38;;;-0.10;99.90;;;;;;5000203;28;20037;-73
2022/12/10 09:32:53;;;;;;;29.98;12.88;;;-0.10;99.90;;;;;;5007425;28;20531;-73
2022/12/10 09:35:19;;;;;;;20.70;8.65;;;-0.10;99.90;;;;;;5011405;28;20038;-73
2022/12/10 09:37:45;;;;;;;24.60;10.73;;;-0.10;99.90;;;;;;5010093;28;20046;-73
2022/12/10 09:40:21;;;;;;;22.08;10.60;;;-0.10;99.90;;;;;;5006524;28;20076;-73
2022/12/10 09:43:00;;;;;;;25.92;12.00;;;-0.10;99.90;;;;;;4991950;28;20037;-73
2022/12/10 09:45:34;;;;;;;28.48;10.57;;;-0.20;99.90;;;;;;4996498;28;20077;-74
2022/12/10 09:48:40;;;;;;;19.50;8.63;;;-0.20;99.90;;;;;;5012112;28;20092;-73
2022/12/10 09:51:26;;;;;;;25.38;10.57;;;-0.20;99.90;;;;;;5015214;28;20045;-73
2022/12/10 09:53:58;;;;;;;;;;;-0.20;99.90;;;;;;5008914;28;20037;-73
2022/12/10 09:56:32;;;;;;;33.65;10.88;;;-0.20;99.90;;;;;;5009718;28;20406;-73
2022/12/10 09:59:02;;;;;;;24.25;12.85;;;-0.20;99.90;;;;;;5007308;28;20050;-73
2022/12/10 10:01:30;;;;;;;27.90;11.63;;;-0.10;99.90;;;;;;5015269;28;20564;-73
2022/12/10 10:03:56;;;;;;;25.10;12.07;;;-0.10;99.90;;;;;;5017497;28;20442;-73
2022/12/10 10:06:24;;;;;;;45.30;21.15;;;-0.10;99.90;;;;;;5018747;28;20115;-73
2022/12/10 10:08:54;;;;;;;27.33;16.52;;;0.00;99.90;;;;;;5031106;28;20090;-73
2022/12/10 10:11:38;;;;;;;35.78;16.83;;;0.00;99.90;;;;;;4998337;28;20069;-73
2022/12/10 10:14:11;;;;;;;36.58;17.85;;;0.00;99.90;;;;;;5005115;28;20183;-73
2022/12/10 10:16:47;;;;;;;28.40;16.08;;;0.00;99.90;;;;;;5011421;28;20038;-73
2022/12/10 10:19:20;;;;;;;38.50;14.90;;;0.00;99.90;;;;;;5009086;28;20276;-74
2022/12/10 10:21:48;;;;;;;17.20;9.77;;;0.00;99.90;;;;;;5016686;28;20029;-72
2022/12/10 10:24:17;;;;;;;18.23;9.30;;;0.10;99.90;;;;;;4993719;28;20525;-72
2022/12/10 10:26:43;;;;;;;25.13;12.23;;;0.10;99.90;;;;;;5020171;28;20129;-73
2022/12/10 10:29:12;;;;;;;13.75;7.38;;;0.20;99.90;;;;;;5017282;28;20069;-72
2022/12/10 10:31:41;;;;;;;34.40;17.15;;;0.20;99.90;;;;;;5015388;28;20042;-72
2022/12/10 10:34:21;;;;;;;28.85;13.68;;;0.20;99.90;;;;;;5010525;28;20500;-72
2022/12/10 10:36:52;;;;;;;26.90;16.65;;;0.20;99.90;;;;;;5011757;28;20045;-72
2022/12/10 10:39:18;;;;;;;30.13;15.43;;;0.20;99.90;;;;;;5012303;28;20074;-73
2022/12/10 10:41:50;;;;;;;25.45;9.65;;;0.20;99.90;;;;;;5014046;28;20484;-73
2022/12/10 10:44:19;;;;;;;18.70;8.27;;;0.30;99.90;;;;;;5008981;28;20045;-73
2022/12/10 10:46:47;;;;;;;21.52;10.77;;;0.30;99.90;;;;;;5007630;28;20080;-73
2022/12/10 10:49:29;;;;;;;27.67;11.32;;;0.40;99.90;;;;;;4995667;28;20073;-73
2022/12/10 10:52:06;;;;;;;19.02;10.15;;;0.40;99.90;;;;;;5009471;28;20088;-73
2022/12/10 10:54:39;;;;;;;22.92;11.05;;;0.40;99.90;;;;;;5012271;28;20034;-73
2022/12/10 10:57:16;;;;;;;29.33;11.45;;;0.40;99.90;;;;;;4991023;28;20042;-73
2022/12/10 10:59:42;;;;;;;21.20;11.57;;;0.40;99.90;;;;;;4994457;28;20049;-73
2022/12/10 11:02:26;;;;;;;24.20;11.13;;;0.40;99.90;;;;;;5011503;28;20033;-73
2022/12/10 11:04:53;;;;;;;31.30;11.30;;;0.50;99.90;;;;;;5013466;28;20041;-73
2022/12/10 11:07:25;;;;;;;27.23;10.75;;;0.50;99.90;;;;;;5008583;28;20034;-73
2022/12/10 11:09:53;;;;;;;23.77;8.60;;;0.50;99.90;;;;;;4997086;28;20397;-73
2022/12/10 11:12:35;;;;;;;23.75;10.75;;;0.50;99.90;;;;;;5001847;28;20499;-73
2022/12/10 11:15:01;;;;;;;24.98;10.27;;;0.50;99.90;;;;;;5010180;28;20132;-73
2022/12/10 11:17:28;;;;;;;14.45;6.72;;;0.50;99.90;;;;;;5002050;28;20065;-73
2022/12/10 11:20:16;;;;;;;27.85;10.65;;;0.50;99.90;;;;;;4997717;28;20095;-73
2022/12/10 11:23:08;;;;;;;36.33;10.25;;;0.50;99.90;;;;;;5010188;28;20041;-73
2022/12/10 11:25:50;;;;;;;17.77;7.80;;;0.50;99.90;;;;;;5001726;28;20034;-73
2022/12/10 11:28:46;;;;;;;15.98;9.55;;;0.50;99.90;;;;;;4998167;28;20048;-72
2022/12/10 11:31:12;;;;;;;;;;;0.50;99.90;;;;;;5008791;28;20308;-73
2022/12/10 11:33:43;;;;;;;22.83;10.00;;;0.50;99.90;;;;;;5019599;28;20003;-72
2022/12/10 11:36:42;;;;;;;19.40;9.40;;;0.50;99.90;;;;;;4997040;28;20151;-72
2022/12/10 11:39:26;;;;;;;17.50;8.60;;;0.60;99.90;;;;;;5014851;28;20538;-72
2022/12/10 11:42:13;;;;;;;17.35;9.10;;;0.60;99.90;;;;;;5009130;28;20373;-72
2022/12/10 11:45:01;;;;;;;19.60;10.05;;;0.60;99.90;;;;;;4994714;28;20038;-72
2022/12/10 11:47:52;;;;;;;20.80;10.73;;;0.60;99.90;;;;;;5014031;28;20425;-72
2022/12/10 11:50:31;;;;;;;27.20;10.45;;;0.60;99.90;;;;;;4991522;28;20073;-72
2022/12/10 11:53:15;;;;;;;18.52;9.57;;;0.50;99.90;;;;;;5011266;28;20107;-72
2022/12/10 11:55:56;;;;;;;34.95;11.48;;;0.60;99.90;;;;;;5010517;28;20057;-72
2022/12/10 11:58:40;;;;;;;22.00;10.88;;;0.50;99.90;;;;;;5006595;28;21251;-72
2022/12/10 12:01:32;;;;;;;18.98;9.05;;;0.50;99.90;;;;;;5015076;28;20380;-72
2022/12/10 12:04:04;;;;;;;18.27;8.77;;;0.50;99.90;;;;;;5008956;28;20041;-72
2022/12/10 12:06:35;;;;;;;17.10;9.75;;;0.60;99.90;;;;;;4992424;28;20042;-73
2022/12/10 12:09:32;;;;;;;22.73;9.55;;;0.60;99.90;;;;;;5005669;28;20081;-72
2022/12/10 12:12:23;;;;;;;21.55;10.63;;;0.60;99.90;;;;;;5006261;28;20464;-72
2022/12/10 12:14:58;;;;;;;18.35;7.75;;;0.70;99.90;;;;;;4987001;28;20194;-72
2022/12/10 12:17:28;;;;;;;18.02;9.25;;;0.70;99.90;;;;;;5005282;28;20135;-72
2022/12/10 12:20:04;;;;;;;27.80;8.98;;;0.70;99.90;;;;;;5017827;28;20042;-72
2022/12/10 12:22:34;;;;;;;19.20;8.98;;;0.80;99.90;;;;;;5010488;28;20438;-72
2022/12/10 12:25:29;;;;;;;25.45;8.90;;;0.80;99.90;;;;;;5004172;28;20042;-72
2022/12/10 12:28:31;;;;;;;26.50;10.57;;;0.70;99.90;;;;;;5002847;28;20038;-72
2022/12/10 12:31:03;;;;;;;15.10;8.60;;;0.70;99.90;;;;;;4977864;28;20507;-72
2022/12/10 12:33:32;;;;;;;26.33;11.45;;;0.70;99.90;;;;;;4989817;28;20029;-72
2022/12/10 12:36:09;;;;;;;24.45;9.15;;;0.70;99.90;;;;;;5024292;28;20128;-72
2022/12/10 12:38:42;;;;;;;19.85;9.38;;;0.70;99.90;;;;;;5006651;28;20399;-71
2022/12/10 12:41:33;;;;;;;16.05;9.48;;;0.70;99.90;;;;;;5013674;28;20042;-71
2022/12/10 12:44:14;;;;;;;26.25;10.52;;;0.70;99.90;;;;;;5008034;28;20530;-72
2022/12/10 12:46:44;;;;;;;22.63;10.00;;;0.70;99.90;;;;;;5013153;28;20037;-71
2022/12/10 12:49:25;;;;;;;22.33;9.85;;;0.80;99.90;;;;;;5005107;28;20142;-71
2022/12/10 12:52:00;;;;;;;18.02;8.80;;;0.80;99.90;;;;;;5006969;28;20305;-71
2022/12/10 12:54:26;;;;;;;25.33;10.35;;;0.80;99.90;;;;;;5007999;28;20403;-71
2022/12/10 12:57:03;;;;;;;23.90;10.13;;;0.80;99.90;;;;;;5006640;28;20038;-71
2022/12/10 13:00:09;;;;;;;28.35;10.52;;;0.80;99.90;;;;;;5005922;28;20046;-71
2022/12/10 13:02:58;;;;;;;28.73;10.80;;;0.80;99.90;;;;;;5017250;28;20053;-72